Sm Busan — 3EIZ8 — position and weather

sailwx.info

Track history (hours):
 
Tides and Currents Weather Stations Pressure Air Temp Water Temp Dewpoint Dewpoint Depression Visibility Wind Speed Wind Dir Waves Ship Positions

Sm Busan

Last reported at 2017-Nov-05 01:02 UTC. Time now 2017-Nov-21 10:16 UTC.
Position N 34°27' W 122°21'.
Warning: this ship's position is 16 days out of date.

Length 304 m; draft 11.2 m.

Type: Ship (hazmat cat A). MMSI: 372445000.

Date/timePositionNaut miles runAvg speedWind from/ knotsBaromVisibWave heightAir tempDewpointWater temp
2017-Nov-05 01:02N 34°27' W 122°21'018.6
2017-Nov-05 01:00N 34°27' W 122°20'1717.7
2017-Nov-05 00:02N 34°27' W 121°59'117.1
2017-Nov-05 00:00N 34°27' W 121°59'817.4
2017-Nov-04 23:30N 34°27' W 121°48'917.4
2017-Nov-04 23:01N 34°27' W 121°38'917.5
2017-Nov-04 22:31N 34°27' W 121°27'816.9
2017-Nov-04 22:00N 34°27' W 121°17'917.2
2017-Nov-04 21:31N 34°27' W 121°07'917.4
2017-Nov-04 21:00N 34°27' W 120°56'917.0
2017-Nov-04 20:30N 34°25' W 120°46'917.5
2017-Nov-04 20:00N 34°23' W 120°36'1018.3
2017-Nov-04 19:29N 34°20' W 120°24'1018.2
2017-Nov-04 18:57N 34°18' W 120°13'918.0
2017-Nov-04 18:28N 34°16' W 120°03'917.7
2017-Nov-04 17:58N 34°13' W 119°53'917.3
2017-Nov-04 17:28N 34°11' W 119°43'818.0
2017-Nov-04 17:00N 34°08' W 119°33'918.6
2017-Nov-04 16:30N 34°06' W 119°22'1018.5
2017-Nov-04 15:58N 34°02' W 119°11'817.3
2017-Nov-04 15:30N 33°58' W 119°03'611.3
2017-Nov-04 15:00N 33°55' W 118°57'511.0
2017-Nov-04 14:30N 33°53' W 118°51'611.1
2017-Nov-04 14:00N 33°50' W 118°45'611.0
2017-Nov-04 13:29N 33°47' W 118°39'511.3
2017-Nov-04 13:00N 33°44' W 118°34'511.1
2017-Nov-04 12:30N 33°42' W 118°28'611.0
2017-Nov-04 11:58N 33°39' W 118°22'511.1
2017-Nov-04 11:30N 33°38' W 118°16'6 9.2
2017-Nov-04 10:50N 33°43' W 118°11'  
2017-Nov-01 02:00N 34°24' W 120°48'1020.5
2017-Nov-01 01:30N 34°29' W 120°59'1120.9
2017-Nov-01 01:00N 34°35' W 121°09'1021.1
2017-Nov-01 00:30N 34°42' W 121°19'1020.6
2017-Nov-01 00:00N 34°48' W 121°29'1020.6
2017-Oct-31 23:30N 34°55' W 121°38'1020.6
2017-Oct-31 23:00N 35°01' W 121°48'914.4
2017-Oct-31 22:22N 35°07' W 121°57'410.1
2017-Oct-31 22:00N 35°09' W 122°01'815.4
2017-Oct-31 21:30N 35°14' W 122°08'2722.5
2017-Oct-31 20:18N 35°30' W 122°34'1222.3
2017-Oct-31 19:46N 35°37' W 122°46'722.1
2017-Oct-31 19:29N 35°41' W 122°52'1122.2
2017-Oct-31 18:58N 35°48' W 123°03'1022.5
2017-Oct-31 18:30N 35°54' W 123°13'1122.0
2017-Oct-31 18:00N 36°01' W 123°24'1122.1
2017-Oct-31 17:30N 36°08' W 123°35'1222.1
2017-Oct-31 16:57N 36°15' W 123°47'1021.9
2017-Oct-31 16:30N 36°21' W 123°57'14521.6
2017-Oct-31 09:48N 37°47' W 126°24'1122.0
2017-Oct-31 09:17N 37°54' W 126°35'54223.3
2017-Oct-30 10:04N 42°48' W 136°32'224.2
2017-Oct-30 10:00N 42°49' W 136°34'  
Track history (hours):
 
Tides and Currents Weather Stations Pressure Air Temp Water Temp Dewpoint Dewpoint Depression Visibility Wind Speed Wind Dir Waves Ship Positions

Sm Busan

Last reported at 2017-Nov-05 01:02 UTC. Time now 2017-Nov-21 10:16 UTC.
Position N 34°27' W 122°21'.
Warning: this ship's position is 16 days out of date.

Length 304 m; draft 11.2 m.

Type: Ship (hazmat cat A). MMSI: 372445000.

Date/timePositionNaut miles runAvg speedWind from/ knotsBaromVisibWave heightAir tempDewpointWater temp
2017-Nov-05 01:02N 34°27' W 122°21'018.6
2017-Nov-05 01:00N 34°27' W 122°20'1717.7
2017-Nov-05 00:02N 34°27' W 121°59'117.1
2017-Nov-05 00:00N 34°27' W 121°59'817.4
2017-Nov-04 23:30N 34°27' W 121°48'917.4
2017-Nov-04 23:01N 34°27' W 121°38'917.5
2017-Nov-04 22:31N 34°27' W 121°27'816.9
2017-Nov-04 22:00N 34°27' W 121°17'917.2
2017-Nov-04 21:31N 34°27' W 121°07'917.4
2017-Nov-04 21:00N 34°27' W 120°56'917.0
2017-Nov-04 20:30N 34°25' W 120°46'917.5
2017-Nov-04 20:00N 34°23' W 120°36'1018.3
2017-Nov-04 19:29N 34°20' W 120°24'1018.2
2017-Nov-04 18:57N 34°18' W 120°13'918.0
2017-Nov-04 18:28N 34°16' W 120°03'917.7
2017-Nov-04 17:58N 34°13' W 119°53'917.3
2017-Nov-04 17:28N 34°11' W 119°43'818.0
2017-Nov-04 17:00N 34°08' W 119°33'918.6
2017-Nov-04 16:30N 34°06' W 119°22'1018.5
2017-Nov-04 15:58N 34°02' W 119°11'817.3
2017-Nov-04 15:30N 33°58' W 119°03'611.3
2017-Nov-04 15:00N 33°55' W 118°57'511.0
2017-Nov-04 14:30N 33°53' W 118°51'611.1
2017-Nov-04 14:00N 33°50' W 118°45'611.0
2017-Nov-04 13:29N 33°47' W 118°39'511.3
2017-Nov-04 13:00N 33°44' W 118°34'511.1
2017-Nov-04 12:30N 33°42' W 118°28'611.0
2017-Nov-04 11:58N 33°39' W 118°22'511.1
2017-Nov-04 11:30N 33°38' W 118°16'6 9.2
2017-Nov-04 10:50N 33°43' W 118°11'  
2017-Nov-01 02:00N 34°24' W 120°48'1020.5
2017-Nov-01 01:30N 34°29' W 120°59'1120.9
2017-Nov-01 01:00N 34°35' W 121°09'1021.1
2017-Nov-01 00:30N 34°42' W 121°19'1020.6
2017-Nov-01 00:00N 34°48' W 121°29'1020.6
2017-Oct-31 23:30N 34°55' W 121°38'1020.6
2017-Oct-31 23:00N 35°01' W 121°48'914.4
2017-Oct-31 22:22N 35°07' W 121°57'410.1
2017-Oct-31 22:00N 35°09' W 122°01'815.4
2017-Oct-31 21:30N 35°14' W 122°08'2722.5
2017-Oct-31 20:18N 35°30' W 122°34'1222.3
2017-Oct-31 19:46N 35°37' W 122°46'722.1
2017-Oct-31 19:29N 35°41' W 122°52'1122.2
2017-Oct-31 18:58N 35°48' W 123°03'1022.5
2017-Oct-31 18:30N 35°54' W 123°13'1122.0
2017-Oct-31 18:00N 36°01' W 123°24'1122.1
2017-Oct-31 17:30N 36°08' W 123°35'1222.1
2017-Oct-31 16:57N 36°15' W 123°47'1021.9
2017-Oct-31 16:30N 36°21' W 123°57'14521.6
2017-Oct-31 09:48N 37°47' W 126°24'1122.0
2017-Oct-31 09:17N 37°54' W 126°35'54223.3
2017-Oct-30 10:04N 42°48' W 136°32'224.2
2017-Oct-30 10:00N 42°49' W 136°34'  

Dump ship's entire track history